sensor_id;sensor_type;location;lat;lon;timestamp;P1;durP1;ratioP1;P2;durP2;ratioP2
4047;SDS011;2038;51.728;6.674;2023-05-21T00:00:39;9.93;;;8.43;;
4047;SDS011;2038;51.728;6.674;2023-05-21T00:03:05;8.60;;;7.80;;
4047;SDS011;2038;51.728;6.674;2023-05-21T00:05:37;10.43;;;8.67;;
4047;SDS011;2038;51.728;6.674;2023-05-21T00:08:04;12.03;;;8.67;;
4047;SDS011;2038;51.728;6.674;2023-05-21T00:10:31;11.53;;;8.83;;
4047;SDS011;2038;51.728;6.674;2023-05-21T00:12:57;11.73;;;9.03;;
4047;SDS011;2038;51.728;6.674;2023-05-21T00:15:23;13.13;;;8.60;;
4047;SDS011;2038;51.728;6.674;2023-05-21T00:17:50;14.20;;;9.57;;
4047;SDS011;2038;51.728;6.674;2023-05-21T00:20:16;11.20;;;9.13;;
4047;SDS011;2038;51.728;6.674;2023-05-21T00:22:42;14.63;;;9.93;;
4047;SDS011;2038;51.728;6.674;2023-05-21T00:25:09;15.77;;;9.93;;
4047;SDS011;2038;51.728;6.674;2023-05-21T00:27:36;10.27;;;8.30;;
4047;SDS011;2038;51.728;6.674;2023-05-21T00:30:03;13.60;;;10.20;;
4047;SDS011;2038;51.728;6.674;2023-05-21T00:32:30;10.23;;;7.70;;
4047;SDS011;2038;51.728;6.674;2023-05-21T00:34:56;11.00;;;8.27;;
4047;SDS011;2038;51.728;6.674;2023-05-21T00:37:22;10.33;;;8.00;;
4047;SDS011;2038;51.728;6.674;2023-05-21T00:39:49;12.30;;;8.60;;
4047;SDS011;2038;51.728;6.674;2023-05-21T00:42:15;10.97;;;8.90;;
4047;SDS011;2038;51.728;6.674;2023-05-21T00:44:42;12.17;;;8.03;;
4047;SDS011;2038;51.728;6.674;2023-05-21T00:47:09;11.83;;;9.80;;
4047;SDS011;2038;51.728;6.674;2023-05-21T00:49:37;10.47;;;8.67;;
4047;SDS011;2038;51.728;6.674;2023-05-21T00:52:04;11.50;;;9.20;;
4047;SDS011;2038;51.728;6.674;2023-05-21T00:54:31;11.63;;;8.60;;
4047;SDS011;2038;51.728;6.674;2023-05-21T00:56:57;10.60;;;8.63;;
4047;SDS011;2038;51.728;6.674;2023-05-21T00:59:24;11.27;;;8.97;;
4047;SDS011;2038;51.728;6.674;2023-05-21T01:01:51;8.90;;;8.00;;
4047;SDS011;2038;51.728;6.674;2023-05-21T01:04:23;8.40;;;7.50;;
4047;SDS011;2038;51.728;6.674;2023-05-21T01:06:50;10.10;;;8.60;;
4047;SDS011;2038;51.728;6.674;2023-05-21T01:09:17;10.10;;;8.13;;
4047;SDS011;2038;51.728;6.674;2023-05-21T01:11:45;9.20;;;7.27;;
4047;SDS011;2038;51.728;6.674;2023-05-21T01:14:15;9.40;;;8.30;;
4047;SDS011;2038;51.728;6.674;2023-05-21T01:16:44;9.10;;;8.03;;
4047;SDS011;2038;51.728;6.674;2023-05-21T01:19:17;9.50;;;8.47;;
4047;SDS011;2038;51.728;6.674;2023-05-21T01:21:48;8.30;;;7.47;;
4047;SDS011;2038;51.728;6.674;2023-05-21T01:24:24;10.50;;;8.83;;
4047;SDS011;2038;51.728;6.674;2023-05-21T01:26:50;8.63;;;7.60;;
4047;SDS011;2038;51.728;6.674;2023-05-21T01:29:17;12.13;;;8.80;;
4047;SDS011;2038;51.728;6.674;2023-05-21T01:34:53;7.90;;;7.13;;
4047;SDS011;2038;51.728;6.674;2023-05-21T01:37:37;12.33;;;8.00;;
4047;SDS011;2038;51.728;6.674;2023-05-21T01:40:57;10.37;;;7.83;;
4047;SDS011;2038;51.728;6.674;2023-05-21T01:43:30;11.20;;;7.00;;
4047;SDS011;2038;51.728;6.674;2023-05-21T01:46:03;10.90;;;7.80;;
4047;SDS011;2038;51.728;6.674;2023-05-21T01:48:33;10.33;;;8.00;;
4047;SDS011;2038;51.728;6.674;2023-05-21T01:51:01;11.00;;;7.63;;
4047;SDS011;2038;51.728;6.674;2023-05-21T01:53:30;13.50;;;9.10;;
4047;SDS011;2038;51.728;6.674;2023-05-21T01:55:57;8.90;;;7.20;;
4047;SDS011;2038;51.728;6.674;2023-05-21T01:58:23;9.53;;;7.27;;
4047;SDS011;2038;51.728;6.674;2023-05-21T02:00:50;9.03;;;8.07;;
4047;SDS011;2038;51.728;6.674;2023-05-21T02:03:16;9.53;;;8.23;;
4047;SDS011;2038;51.728;6.674;2023-05-21T02:05:44;10.80;;;8.00;;
4047;SDS011;2038;51.728;6.674;2023-05-21T02:08:11;8.93;;;7.60;;
4047;SDS011;2038;51.728;6.674;2023-05-21T02:10:39;9.33;;;8.23;;
4047;SDS011;2038;51.728;6.674;2023-05-21T02:13:05;9.67;;;8.37;;
4047;SDS011;2038;51.728;6.674;2023-05-21T02:15:31;10.80;;;7.97;;
4047;SDS011;2038;51.728;6.674;2023-05-21T02:17:58;10.77;;;8.73;;
4047;SDS011;2038;51.728;6.674;2023-05-21T02:20:24;9.67;;;7.30;;
4047;SDS011;2038;51.728;6.674;2023-05-21T02:22:51;9.20;;;7.93;;
4047;SDS011;2038;51.728;6.674;2023-05-21T02:25:18;9.43;;;7.10;;
4047;SDS011;2038;51.728;6.674;2023-05-21T02:27:44;10.90;;;7.87;;
4047;SDS011;2038;51.728;6.674;2023-05-21T02:30:11;12.57;;;7.70;;
4047;SDS011;2038;51.728;6.674;2023-05-21T02:32:39;8.70;;;7.77;;
4047;SDS011;2038;51.728;6.674;2023-05-21T02:35:07;11.53;;;8.70;;
4047;SDS011;2038;51.728;6.674;2023-05-21T02:37:36;10.63;;;7.80;;
4047;SDS011;2038;51.728;6.674;2023-05-21T02:40:04;9.20;;;8.00;;
4047;SDS011;2038;51.728;6.674;2023-05-21T02:42:34;8.90;;;7.97;;
4047;SDS011;2038;51.728;6.674;2023-05-21T02:45:03;9.43;;;7.43;;
4047;SDS011;2038;51.728;6.674;2023-05-21T02:47:31;12.23;;;9.20;;
4047;SDS011;2038;51.728;6.674;2023-05-21T02:49:58;8.57;;;7.53;;
4047;SDS011;2038;51.728;6.674;2023-05-21T02:52:25;8.97;;;8.07;;
4047;SDS011;2038;51.728;6.674;2023-05-21T02:54:52;9.40;;;8.30;;
4047;SDS011;2038;51.728;6.674;2023-05-21T02:57:18;9.43;;;8.17;;
4047;SDS011;2038;51.728;6.674;2023-05-21T02:59:44;13.30;;;8.03;;
4047;SDS011;2038;51.728;6.674;2023-05-21T03:02:11;10.13;;;8.97;;
4047;SDS011;2038;51.728;6.674;2023-05-21T03:04:37;11.70;;;8.30;;
4047;SDS011;2038;51.728;6.674;2023-05-21T03:07:10;8.53;;;7.67;;
4047;SDS011;2038;51.728;6.674;2023-05-21T03:09:42;10.50;;;8.47;;
4047;SDS011;2038;51.728;6.674;2023-05-21T03:12:09;8.53;;;7.20;;
4047;SDS011;2038;51.728;6.674;2023-05-21T03:14:36;9.93;;;8.47;;
4047;SDS011;2038;51.728;6.674;2023-05-21T03:17:02;11.60;;;7.63;;
4047;SDS011;2038;51.728;6.674;2023-05-21T03:19:32;12.33;;;9.07;;
4047;SDS011;2038;51.728;6.674;2023-05-21T03:22:00;9.23;;;7.40;;
4047;SDS011;2038;51.728;6.674;2023-05-21T03:24:29;13.43;;;8.30;;
4047;SDS011;2038;51.728;6.674;2023-05-21T03:26:57;13.43;;;10.17;;
4047;SDS011;2038;51.728;6.674;2023-05-21T03:29:25;12.37;;;8.20;;
4047;SDS011;2038;51.728;6.674;2023-05-21T03:31:52;10.90;;;9.00;;
4047;SDS011;2038;51.728;6.674;2023-05-21T03:34:19;11.37;;;8.63;;
4047;SDS011;2038;51.728;6.674;2023-05-21T03:36:46;10.73;;;8.30;;
4047;SDS011;2038;51.728;6.674;2023-05-21T03:39:12;12.63;;;8.80;;
4047;SDS011;2038;51.728;6.674;2023-05-21T03:41:39;10.10;;;8.20;;
4047;SDS011;2038;51.728;6.674;2023-05-21T03:44:05;11.70;;;8.70;;
4047;SDS011;2038;51.728;6.674;2023-05-21T03:46:32;10.43;;;8.73;;
4047;SDS011;2038;51.728;6.674;2023-05-21T03:48:58;9.93;;;8.50;;
4047;SDS011;2038;51.728;6.674;2023-05-21T03:51:24;11.20;;;9.30;;
4047;SDS011;2038;51.728;6.674;2023-05-21T03:53:51;10.37;;;9.17;;
4047;SDS011;2038;51.728;6.674;2023-05-21T03:56:17;11.20;;;9.20;;
4047;SDS011;2038;51.728;6.674;2023-05-21T03:58:43;10.13;;;8.97;;
4047;SDS011;2038;51.728;6.674;2023-05-21T04:01:10;12.20;;;9.40;;
4047;SDS011;2038;51.728;6.674;2023-05-21T04:03:37;12.47;;;9.33;;
4047;SDS011;2038;51.728;6.674;2023-05-21T04:06:03;10.30;;;8.30;;
4047;SDS011;2038;51.728;6.674;2023-05-21T04:08:29;11.57;;;8.30;;
4047;SDS011;2038;51.728;6.674;2023-05-21T04:10:56;10.37;;;9.00;;
4047;SDS011;2038;51.728;6.674;2023-05-21T04:13:22;8.77;;;7.90;;
4047;SDS011;2038;51.728;6.674;2023-05-21T04:15:48;10.40;;;9.30;;
4047;SDS011;2038;51.728;6.674;2023-05-21T04:18:14;12.53;;;10.37;;
4047;SDS011;2038;51.728;6.674;2023-05-21T04:20:41;11.77;;;9.23;;
4047;SDS011;2038;51.728;6.674;2023-05-21T04:23:07;11.03;;;9.43;;
4047;SDS011;2038;51.728;6.674;2023-05-21T04:25:34;10.90;;;9.10;;
4047;SDS011;2038;51.728;6.674;2023-05-21T04:28:00;12.50;;;8.60;;
4047;SDS011;2038;51.728;6.674;2023-05-21T04:30:27;10.40;;;9.30;;
4047;SDS011;2038;51.728;6.674;2023-05-21T04:32:53;9.80;;;8.80;;
4047;SDS011;2038;51.728;6.674;2023-05-21T04:35:19;13.43;;;10.50;;
4047;SDS011;2038;51.728;6.674;2023-05-21T04:37:47;10.67;;;8.70;;
4047;SDS011;2038;51.728;6.674;2023-05-21T04:40:13;12.80;;;9.57;;
4047;SDS011;2038;51.728;6.674;2023-05-21T04:42:45;11.10;;;9.30;;
4047;SDS011;2038;51.728;6.674;2023-05-21T04:45:12;16.93;;;10.10;;
4047;SDS011;2038;51.728;6.674;2023-05-21T04:47:38;14.73;;;9.80;;
4047;SDS011;2038;51.728;6.674;2023-05-21T04:50:05;15.57;;;10.53;;
4047;SDS011;2038;51.728;6.674;2023-05-21T04:52:32;11.57;;;9.57;;
4047;SDS011;2038;51.728;6.674;2023-05-21T04:54:58;11.07;;;9.83;;
4047;SDS011;2038;51.728;6.674;2023-05-21T04:57:25;11.03;;;9.93;;
4047;SDS011;2038;51.728;6.674;2023-05-21T04:59:52;15.47;;;9.87;;
4047;SDS011;2038;51.728;6.674;2023-05-21T05:02:18;10.47;;;8.53;;
4047;SDS011;2038;51.728;6.674;2023-05-21T05:04:45;18.80;;;10.50;;
4047;SDS011;2038;51.728;6.674;2023-05-21T05:07:11;17.10;;;9.33;;
4047;SDS011;2038;51.728;6.674;2023-05-21T05:09:37;13.90;;;9.80;;
4047;SDS011;2038;51.728;6.674;2023-05-21T05:12:04;16.00;;;11.20;;
4047;SDS011;2038;51.728;6.674;2023-05-21T05:14:30;14.23;;;10.23;;
4047;SDS011;2038;51.728;6.674;2023-05-21T05:16:57;10.97;;;9.67;;
4047;SDS011;2038;51.728;6.674;2023-05-21T05:19:23;12.17;;;10.87;;
4047;SDS011;2038;51.728;6.674;2023-05-21T05:21:51;11.40;;;10.13;;
4047;SDS011;2038;51.728;6.674;2023-05-21T05:24:18;12.80;;;9.33;;
4047;SDS011;2038;51.728;6.674;2023-05-21T05:26:44;12.07;;;9.87;;
4047;SDS011;2038;51.728;6.674;2023-05-21T05:29:10;16.93;;;10.10;;
4047;SDS011;2038;51.728;6.674;2023-05-21T05:31:36;13.33;;;10.47;;
4047;SDS011;2038;51.728;6.674;2023-05-21T05:34:03;12.30;;;9.93;;
4047;SDS011;2038;51.728;6.674;2023-05-21T05:36:29;12.47;;;10.80;;
4047;SDS011;2038;51.728;6.674;2023-05-21T05:38:55;14.10;;;10.50;;
4047;SDS011;2038;51.728;6.674;2023-05-21T05:41:21;15.33;;;9.97;;
4047;SDS011;2038;51.728;6.674;2023-05-21T05:43:48;11.70;;;10.10;;
4047;SDS011;2038;51.728;6.674;2023-05-21T05:46:14;12.23;;;9.97;;
4047;SDS011;2038;51.728;6.674;2023-05-21T05:48:40;12.13;;;9.90;;
4047;SDS011;2038;51.728;6.674;2023-05-21T05:51:06;15.50;;;10.73;;
4047;SDS011;2038;51.728;6.674;2023-05-21T05:53:33;12.53;;;9.90;;
4047;SDS011;2038;51.728;6.674;2023-05-21T05:55:59;12.20;;;9.90;;
4047;SDS011;2038;51.728;6.674;2023-05-21T05:58:25;12.40;;;10.63;;
4047;SDS011;2038;51.728;6.674;2023-05-21T06:00:53;10.70;;;9.60;;
4047;SDS011;2038;51.728;6.674;2023-05-21T06:03:19;12.77;;;10.73;;
4047;SDS011;2038;51.728;6.674;2023-05-21T06:05:45;12.67;;;11.07;;
4047;SDS011;2038;51.728;6.674;2023-05-21T06:08:12;11.30;;;9.67;;
4047;SDS011;2038;51.728;6.674;2023-05-21T06:10:38;11.90;;;10.60;;
4047;SDS011;2038;51.728;6.674;2023-05-21T06:13:04;12.43;;;10.87;;
4047;SDS011;2038;51.728;6.674;2023-05-21T06:15:30;15.03;;;10.63;;
4047;SDS011;2038;51.728;6.674;2023-05-21T06:17:57;12.73;;;10.00;;
4047;SDS011;2038;51.728;6.674;2023-05-21T06:20:23;21.07;;;12.00;;
4047;SDS011;2038;51.728;6.674;2023-05-21T06:22:49;15.03;;;11.40;;
4047;SDS011;2038;51.728;6.674;2023-05-21T06:25:16;13.90;;;11.30;;
4047;SDS011;2038;51.728;6.674;2023-05-21T06:27:42;12.80;;;10.43;;
4047;SDS011;2038;51.728;6.674;2023-05-21T06:30:08;13.33;;;10.93;;
4047;SDS011;2038;51.728;6.674;2023-05-21T06:32:35;12.50;;;10.13;;
4047;SDS011;2038;51.728;6.674;2023-05-21T06:35:01;17.00;;;12.03;;
4047;SDS011;2038;51.728;6.674;2023-05-21T06:37:27;13.33;;;10.50;;
4047;SDS011;2038;51.728;6.674;2023-05-21T06:39:53;11.77;;;10.20;;
4047;SDS011;2038;51.728;6.674;2023-05-21T06:42:19;13.20;;;10.90;;
4047;SDS011;2038;51.728;6.674;2023-05-21T06:44:46;17.30;;;10.17;;
4047;SDS011;2038;51.728;6.674;2023-05-21T06:47:12;13.80;;;10.33;;
4047;SDS011;2038;51.728;6.674;2023-05-21T06:49:38;11.50;;;9.70;;
4047;SDS011;2038;51.728;6.674;2023-05-21T06:52:04;11.03;;;9.77;;
4047;SDS011;2038;51.728;6.674;2023-05-21T06:54:31;13.93;;;10.80;;
4047;SDS011;2038;51.728;6.674;2023-05-21T06:56:58;14.90;;;11.60;;
4047;SDS011;2038;51.728;6.674;2023-05-21T06:59:24;18.70;;;10.10;;
4047;SDS011;2038;51.728;6.674;2023-05-21T07:01:50;15.60;;;10.60;;
4047;SDS011;2038;51.728;6.674;2023-05-21T07:04:17;15.23;;;11.27;;
4047;SDS011;2038;51.728;6.674;2023-05-21T07:06:43;19.00;;;10.93;;
4047;SDS011;2038;51.728;6.674;2023-05-21T07:09:09;17.07;;;11.27;;
4047;SDS011;2038;51.728;6.674;2023-05-21T07:11:35;14.53;;;11.30;;
4047;SDS011;2038;51.728;6.674;2023-05-21T07:14:02;12.07;;;10.13;;
4047;SDS011;2038;51.728;6.674;2023-05-21T07:16:29;13.53;;;10.30;;
4047;SDS011;2038;51.728;6.674;2023-05-21T07:18:55;15.90;;;11.57;;
4047;SDS011;2038;51.728;6.674;2023-05-21T07:21:21;13.60;;;11.33;;
4047;SDS011;2038;51.728;6.674;2023-05-21T07:23:48;17.33;;;11.17;;
4047;SDS011;2038;51.728;6.674;2023-05-21T07:26:14;18.40;;;11.40;;
4047;SDS011;2038;51.728;6.674;2023-05-21T07:28:40;11.83;;;10.60;;
4047;SDS011;2038;51.728;6.674;2023-05-21T07:31:07;13.70;;;10.70;;
4047;SDS011;2038;51.728;6.674;2023-05-21T07:33:36;17.17;;;12.17;;
4047;SDS011;2038;51.728;6.674;2023-05-21T07:36:02;13.20;;;10.87;;
4047;SDS011;2038;51.728;6.674;2023-05-21T07:38:29;13.97;;;10.53;;
4047;SDS011;2038;51.728;6.674;2023-05-21T07:40:56;14.90;;;11.83;;
4047;SDS011;2038;51.728;6.674;2023-05-21T07:43:22;13.10;;;10.77;;
4047;SDS011;2038;51.728;6.674;2023-05-21T07:45:48;12.07;;;10.63;;
4047;SDS011;2038;51.728;6.674;2023-05-21T07:48:14;14.13;;;11.37;;
4047;SDS011;2038;51.728;6.674;2023-05-21T07:50:42;15.20;;;11.20;;
4047;SDS011;2038;51.728;6.674;2023-05-21T07:53:09;19.93;;;12.33;;
4047;SDS011;2038;51.728;6.674;2023-05-21T07:55:35;17.10;;;12.23;;
4047;SDS011;2038;51.728;6.674;2023-05-21T07:58:01;13.97;;;11.63;;
4047;SDS011;2038;51.728;6.674;2023-05-21T08:00:27;14.40;;;11.87;;
4047;SDS011;2038;51.728;6.674;2023-05-21T08:02:53;14.53;;;13.07;;
4047;SDS011;2038;51.728;6.674;2023-05-21T08:05:20;21.00;;;11.70;;
4047;SDS011;2038;51.728;6.674;2023-05-21T08:07:47;13.57;;;10.63;;
4047;SDS011;2038;51.728;6.674;2023-05-21T08:10:13;13.27;;;11.87;;
4047;SDS011;2038;51.728;6.674;2023-05-21T08:12:39;14.33;;;10.57;;
4047;SDS011;2038;51.728;6.674;2023-05-21T08:15:06;19.33;;;11.93;;
4047;SDS011;2038;51.728;6.674;2023-05-21T08:17:33;13.80;;;11.30;;
4047;SDS011;2038;51.728;6.674;2023-05-21T08:19:59;14.20;;;12.73;;
4047;SDS011;2038;51.728;6.674;2023-05-21T08:22:25;15.40;;;13.60;;
4047;SDS011;2038;51.728;6.674;2023-05-21T08:24:52;16.17;;;13.33;;
4047;SDS011;2038;51.728;6.674;2023-05-21T08:27:18;14.83;;;12.30;;
4047;SDS011;2038;51.728;6.674;2023-05-21T08:29:45;16.90;;;13.20;;
4047;SDS011;2038;51.728;6.674;2023-05-21T08:32:11;14.50;;;11.90;;
4047;SDS011;2038;51.728;6.674;2023-05-21T08:34:37;16.40;;;11.57;;
4047;SDS011;2038;51.728;6.674;2023-05-21T08:37:04;13.50;;;11.33;;
4047;SDS011;2038;51.728;6.674;2023-05-21T08:39:30;14.80;;;12.47;;
4047;SDS011;2038;51.728;6.674;2023-05-21T08:41:57;17.27;;;14.03;;
4047;SDS011;2038;51.728;6.674;2023-05-21T08:44:40;13.00;;;11.50;;
4047;SDS011;2038;51.728;6.674;2023-05-21T08:47:15;17.33;;;12.17;;
4047;SDS011;2038;51.728;6.674;2023-05-21T08:49:50;16.97;;;13.20;;
4047;SDS011;2038;51.728;6.674;2023-05-21T08:52:16;13.70;;;11.23;;
4047;SDS011;2038;51.728;6.674;2023-05-21T08:54:44;15.73;;;11.90;;
4047;SDS011;2038;51.728;6.674;2023-05-21T08:57:14;20.67;;;13.00;;
4047;SDS011;2038;51.728;6.674;2023-05-21T08:59:42;15.00;;;12.80;;
4047;SDS011;2038;51.728;6.674;2023-05-21T09:02:10;18.37;;;13.77;;
4047;SDS011;2038;51.728;6.674;2023-05-21T09:04:38;15.40;;;13.60;;
4047;SDS011;2038;51.728;6.674;2023-05-21T09:07:05;16.30;;;13.97;;
4047;SDS011;2038;51.728;6.674;2023-05-21T09:09:37;17.27;;;13.07;;
4047;SDS011;2038;51.728;6.674;2023-05-21T09:12:17;14.77;;;12.60;;
4047;SDS011;2038;51.728;6.674;2023-05-21T09:14:43;20.30;;;13.80;;
4047;SDS011;2038;51.728;6.674;2023-05-21T09:17:14;16.73;;;13.47;;
4047;SDS011;2038;51.728;6.674;2023-05-21T09:22:40;16.17;;;12.30;;
4047;SDS011;2038;51.728;6.674;2023-05-21T09:25:10;18.27;;;14.00;;
4047;SDS011;2038;51.728;6.674;2023-05-21T09:27:39;14.33;;;12.60;;
4047;SDS011;2038;51.728;6.674;2023-05-21T09:30:10;17.77;;;14.80;;
4047;SDS011;2038;51.728;6.674;2023-05-21T09:32:41;15.10;;;12.70;;
4047;SDS011;2038;51.728;6.674;2023-05-21T09:35:10;19.77;;;13.50;;
4047;SDS011;2038;51.728;6.674;2023-05-21T09:37:41;17.63;;;14.50;;
4047;SDS011;2038;51.728;6.674;2023-05-21T09:40:12;24.13;;;13.77;;
4047;SDS011;2038;51.728;6.674;2023-05-21T09:42:41;20.20;;;14.77;;
4047;SDS011;2038;51.728;6.674;2023-05-21T09:45:18;16.53;;;13.87;;
4047;SDS011;2038;51.728;6.674;2023-05-21T09:47:52;21.23;;;15.17;;
4047;SDS011;2038;51.728;6.674;2023-05-21T09:50:23;18.30;;;14.47;;
4047;SDS011;2038;51.728;6.674;2023-05-21T09:52:52;16.90;;;13.93;;
4047;SDS011;2038;51.728;6.674;2023-05-21T09:55:23;17.03;;;14.30;;
4047;SDS011;2038;51.728;6.674;2023-05-21T09:57:50;24.00;;;15.80;;
4047;SDS011;2038;51.728;6.674;2023-05-21T10:00:24;16.60;;;13.50;;
4047;SDS011;2038;51.728;6.674;2023-05-21T10:02:53;20.63;;;16.17;;
4047;SDS011;2038;51.728;6.674;2023-05-21T10:05:26;15.00;;;12.83;;
4047;SDS011;2038;51.728;6.674;2023-05-21T10:08:01;17.57;;;12.70;;
4047;SDS011;2038;51.728;6.674;2023-05-21T10:10:29;21.07;;;15.60;;
4047;SDS011;2038;51.728;6.674;2023-05-21T10:13:00;18.17;;;14.27;;
4047;SDS011;2038;51.728;6.674;2023-05-21T10:15:42;26.07;;;17.60;;
4047;SDS011;2038;51.728;6.674;2023-05-21T10:18:14;23.30;;;16.23;;
4047;SDS011;2038;51.728;6.674;2023-05-21T10:20:42;25.07;;;14.73;;
4047;SDS011;2038;51.728;6.674;2023-05-21T10:23:10;18.90;;;14.87;;
4047;SDS011;2038;51.728;6.674;2023-05-21T10:25:37;19.23;;;15.10;;
4047;SDS011;2038;51.728;6.674;2023-05-21T10:28:04;20.03;;;16.63;;
4047;SDS011;2038;51.728;6.674;2023-05-21T10:30:31;18.80;;;14.63;;
4047;SDS011;2038;51.728;6.674;2023-05-21T10:33:00;22.20;;;15.47;;
4047;SDS011;2038;51.728;6.674;2023-05-21T10:35:27;19.97;;;17.40;;
4047;SDS011;2038;51.728;6.674;2023-05-21T10:37:55;21.90;;;16.80;;
4047;SDS011;2038;51.728;6.674;2023-05-21T10:40:23;20.27;;;17.47;;
4047;SDS011;2038;51.728;6.674;2023-05-21T10:43:05;21.63;;;18.03;;
4047;SDS011;2038;51.728;6.674;2023-05-21T10:55:37;22.47;;;17.77;;
4047;SDS011;2038;51.728;6.674;2023-05-21T11:01:42;21.43;;;18.00;;
4047;SDS011;2038;51.728;6.674;2023-05-21T11:04:09;24.67;;;16.87;;
4047;SDS011;2038;51.728;6.674;2023-05-21T11:06:36;21.87;;;16.73;;
4047;SDS011;2038;51.728;6.674;2023-05-21T11:09:11;23.07;;;18.10;;
4047;SDS011;2038;51.728;6.674;2023-05-21T11:11:42;23.97;;;16.73;;
4047;SDS011;2038;51.728;6.674;2023-05-21T11:14:29;19.67;;;17.10;;
4047;SDS011;2038;51.728;6.674;2023-05-21T11:22:27;24.80;;;18.47;;
4047;SDS011;2038;51.728;6.674;2023-05-21T11:24:53;21.80;;;17.83;;
4047;SDS011;2038;51.728;6.674;2023-05-21T11:27:31;21.00;;;17.10;;
4047;SDS011;2038;51.728;6.674;2023-05-21T11:30:03;20.43;;;17.10;;
4047;SDS011;2038;51.728;6.674;2023-05-21T11:32:33;25.70;;;18.67;;
4047;SDS011;2038;51.728;6.674;2023-05-21T11:38:13;24.33;;;18.23;;
4047;SDS011;2038;51.728;6.674;2023-05-21T11:40:51;21.53;;;18.23;;
4047;SDS011;2038;51.728;6.674;2023-05-21T11:43:18;22.97;;;18.50;;
4047;SDS011;2038;51.728;6.674;2023-05-21T11:45:45;24.67;;;16.90;;
4047;SDS011;2038;51.728;6.674;2023-05-21T11:48:14;25.77;;;19.30;;
4047;SDS011;2038;51.728;6.674;2023-05-21T11:50:41;20.57;;;17.57;;
4047;SDS011;2038;51.728;6.674;2023-05-21T11:53:12;26.27;;;18.63;;
4047;SDS011;2038;51.728;6.674;2023-05-21T11:55:39;26.37;;;19.17;;
4047;SDS011;2038;51.728;6.674;2023-05-21T11:58:07;25.27;;;18.27;;
4047;SDS011;2038;51.728;6.674;2023-05-21T12:00:37;23.37;;;19.00;;
4047;SDS011;2038;51.728;6.674;2023-05-21T12:03:04;24.93;;;19.47;;
4047;SDS011;2038;51.728;6.674;2023-05-21T12:05:45;24.03;;;17.27;;
4047;SDS011;2038;51.728;6.674;2023-05-21T12:08:12;23.47;;;18.40;;
4047;SDS011;2038;51.728;6.674;2023-05-21T12:10:45;23.57;;;18.47;;
4047;SDS011;2038;51.728;6.674;2023-05-21T12:13:13;26.00;;;19.80;;
4047;SDS011;2038;51.728;6.674;2023-05-21T12:15:39;24.13;;;15.90;;
4047;SDS011;2038;51.728;6.674;2023-05-21T12:18:05;22.77;;;17.50;;
4047;SDS011;2038;51.728;6.674;2023-05-21T12:20:31;28.67;;;18.77;;
4047;SDS011;2038;51.728;6.674;2023-05-21T12:22:58;26.10;;;20.07;;
4047;SDS011;2038;51.728;6.674;2023-05-21T12:25:24;26.73;;;19.70;;
4047;SDS011;2038;51.728;6.674;2023-05-21T12:27:51;24.43;;;19.60;;
4047;SDS011;2038;51.728;6.674;2023-05-21T12:30:23;27.13;;;18.97;;
4047;SDS011;2038;51.728;6.674;2023-05-21T12:32:50;25.90;;;18.80;;
4047;SDS011;2038;51.728;6.674;2023-05-21T12:35:19;24.87;;;19.83;;
4047;SDS011;2038;51.728;6.674;2023-05-21T12:37:47;26.07;;;18.90;;
4047;SDS011;2038;51.728;6.674;2023-05-21T12:40:14;23.90;;;17.23;;
4047;SDS011;2038;51.728;6.674;2023-05-21T12:42:41;22.77;;;18.67;;
4047;SDS011;2038;51.728;6.674;2023-05-21T12:45:08;23.63;;;18.40;;
4047;SDS011;2038;51.728;6.674;2023-05-21T12:47:36;25.53;;;19.80;;
4047;SDS011;2038;51.728;6.674;2023-05-21T12:50:06;29.73;;;20.10;;
4047;SDS011;2038;51.728;6.674;2023-05-21T12:52:36;24.40;;;19.23;;
4047;SDS011;2038;51.728;6.674;2023-05-21T12:55:04;26.47;;;20.83;;
4047;SDS011;2038;51.728;6.674;2023-05-21T12:57:34;23.00;;;18.33;;
4047;SDS011;2038;51.728;6.674;2023-05-21T13:00:05;20.80;;;15.50;;
4047;SDS011;2038;51.728;6.674;2023-05-21T13:05:09;23.37;;;19.03;;
4047;SDS011;2038;51.728;6.674;2023-05-21T13:07:44;29.30;;;19.63;;
4047;SDS011;2038;51.728;6.674;2023-05-21T13:10:11;23.20;;;18.67;;
4047;SDS011;2038;51.728;6.674;2023-05-21T13:12:37;21.37;;;16.40;;
4047;SDS011;2038;51.728;6.674;2023-05-21T13:15:04;19.47;;;16.37;;
4047;SDS011;2038;51.728;6.674;2023-05-21T13:17:32;21.70;;;17.37;;
4047;SDS011;2038;51.728;6.674;2023-05-21T13:20:14;22.37;;;17.57;;
4047;SDS011;2038;51.728;6.674;2023-05-21T13:22:46;26.93;;;19.03;;
4047;SDS011;2038;51.728;6.674;2023-05-21T13:25:18;23.87;;;19.43;;
4047;SDS011;2038;51.728;6.674;2023-05-21T13:27:48;21.13;;;16.63;;
4047;SDS011;2038;51.728;6.674;2023-05-21T13:30:17;29.57;;;19.43;;
4047;SDS011;2038;51.728;6.674;2023-05-21T13:32:44;23.10;;;17.20;;
4047;SDS011;2038;51.728;6.674;2023-05-21T13:35:11;27.13;;;16.90;;
4047;SDS011;2038;51.728;6.674;2023-05-21T13:37:39;22.23;;;18.53;;
4047;SDS011;2038;51.728;6.674;2023-05-21T13:40:06;22.80;;;17.83;;
4047;SDS011;2038;51.728;6.674;2023-05-21T13:42:35;23.73;;;17.90;;
4047;SDS011;2038;51.728;6.674;2023-05-21T13:45:06;25.03;;;15.10;;
4047;SDS011;2038;51.728;6.674;2023-05-21T13:47:35;19.33;;;15.50;;
4047;SDS011;2038;51.728;6.674;2023-05-21T13:50:02;25.83;;;19.53;;
4047;SDS011;2038;51.728;6.674;2023-05-21T13:52:29;26.00;;;19.20;;
4047;SDS011;2038;51.728;6.674;2023-05-21T13:54:55;24.47;;;18.03;;
4047;SDS011;2038;51.728;6.674;2023-05-21T13:57:21;23.00;;;18.33;;
4047;SDS011;2038;51.728;6.674;2023-05-21T13:59:50;21.70;;;17.30;;
4047;SDS011;2038;51.728;6.674;2023-05-21T14:02:17;23.23;;;17.60;;
4047;SDS011;2038;51.728;6.674;2023-05-21T14:04:43;20.27;;;17.30;;
4047;SDS011;2038;51.728;6.674;2023-05-21T14:07:09;21.90;;;17.03;;
4047;SDS011;2038;51.728;6.674;2023-05-21T14:09:36;20.80;;;16.67;;
4047;SDS011;2038;51.728;6.674;2023-05-21T14:12:02;20.50;;;16.10;;
4047;SDS011;2038;51.728;6.674;2023-05-21T14:14:29;19.90;;;15.60;;
4047;SDS011;2038;51.728;6.674;2023-05-21T14:16:56;21.00;;;17.63;;
4047;SDS011;2038;51.728;6.674;2023-05-21T14:19:22;19.67;;;17.17;;
4047;SDS011;2038;51.728;6.674;2023-05-21T14:21:50;17.07;;;14.80;;
4047;SDS011;2038;51.728;6.674;2023-05-21T14:24:16;20.27;;;16.63;;
4047;SDS011;2038;51.728;6.674;2023-05-21T14:26:43;24.20;;;18.60;;
4047;SDS011;2038;51.728;6.674;2023-05-21T14:29:09;20.57;;;16.60;;
4047;SDS011;2038;51.728;6.674;2023-05-21T14:31:36;19.20;;;14.60;;
4047;SDS011;2038;51.728;6.674;2023-05-21T14:34:03;22.53;;;15.73;;
4047;SDS011;2038;51.728;6.674;2023-05-21T14:36:31;18.07;;;16.23;;
4047;SDS011;2038;51.728;6.674;2023-05-21T14:38:58;18.70;;;15.27;;
4047;SDS011;2038;51.728;6.674;2023-05-21T14:41:25;17.67;;;15.77;;
4047;SDS011;2038;51.728;6.674;2023-05-21T14:43:51;18.70;;;15.80;;
4047;SDS011;2038;51.728;6.674;2023-05-21T14:46:18;17.80;;;15.90;;
4047;SDS011;2038;51.728;6.674;2023-05-21T14:48:45;18.07;;;14.43;;
4047;SDS011;2038;51.728;6.674;2023-05-21T14:51:11;20.10;;;17.37;;
4047;SDS011;2038;51.728;6.674;2023-05-21T14:53:38;20.17;;;14.23;;
4047;SDS011;2038;51.728;6.674;2023-05-21T14:56:05;21.80;;;16.67;;
4047;SDS011;2038;51.728;6.674;2023-05-21T14:58:32;16.70;;;14.40;;
4047;SDS011;2038;51.728;6.674;2023-05-21T15:00:58;22.17;;;16.57;;
4047;SDS011;2038;51.728;6.674;2023-05-21T15:03:24;19.73;;;15.57;;
4047;SDS011;2038;51.728;6.674;2023-05-21T15:05:50;18.00;;;15.70;;
4047;SDS011;2038;51.728;6.674;2023-05-21T15:08:16;22.60;;;18.20;;
4047;SDS011;2038;51.728;6.674;2023-05-21T15:10:43;20.50;;;16.10;;
4047;SDS011;2038;51.728;6.674;2023-05-21T15:13:09;18.40;;;15.70;;
4047;SDS011;2038;51.728;6.674;2023-05-21T15:15:35;17.90;;;16.00;;
4047;SDS011;2038;51.728;6.674;2023-05-21T15:18:05;24.37;;;15.63;;
4047;SDS011;2038;51.728;6.674;2023-05-21T15:20:31;19.17;;;17.20;;
4047;SDS011;2038;51.728;6.674;2023-05-21T15:22:57;20.87;;;15.30;;
4047;SDS011;2038;51.728;6.674;2023-05-21T15:25:25;17.10;;;14.20;;
4047;SDS011;2038;51.728;6.674;2023-05-21T15:27:51;22.10;;;16.83;;